sensor_id;sensor_type;location;lat;lon;timestamp;P1;durP1;ratioP1;P2;durP2;ratioP2
76127;SDS011;64873;50.102;14.434;2023-07-24T00:00:14;5.30;;;3.70;;
76127;SDS011;64873;50.102;14.434;2023-07-24T00:02:40;14.27;;;4.22;;
76127;SDS011;64873;50.102;14.434;2023-07-24T00:05:05;7.38;;;4.30;;
76127;SDS011;64873;50.102;14.434;2023-07-24T00:07:31;5.78;;;3.78;;
76127;SDS011;64873;50.102;14.434;2023-07-24T00:09:56;7.03;;;4.15;;
76127;SDS011;64873;50.102;14.434;2023-07-24T00:12:22;6.43;;;4.20;;
76127;SDS011;64873;50.102;14.434;2023-07-24T00:14:48;6.20;;;4.07;;
76127;SDS011;64873;50.102;14.434;2023-07-24T00:17:13;5.68;;;3.83;;
76127;SDS011;64873;50.102;14.434;2023-07-24T00:19:38;7.05;;;3.95;;
76127;SDS011;64873;50.102;14.434;2023-07-24T00:22:04;6.10;;;3.83;;
76127;SDS011;64873;50.102;14.434;2023-07-24T00:24:31;6.43;;;4.45;;
76127;SDS011;64873;50.102;14.434;2023-07-24T00:26:57;7.18;;;4.10;;
76127;SDS011;64873;50.102;14.434;2023-07-24T00:29:23;7.68;;;4.07;;
76127;SDS011;64873;50.102;14.434;2023-07-24T00:31:48;6.50;;;3.63;;
76127;SDS011;64873;50.102;14.434;2023-07-24T00:34:14;7.47;;;4.20;;
76127;SDS011;64873;50.102;14.434;2023-07-24T00:36:39;6.20;;;3.90;;
76127;SDS011;64873;50.102;14.434;2023-07-24T00:39:04;6.40;;;3.90;;
76127;SDS011;64873;50.102;14.434;2023-07-24T00:41:30;6.32;;;3.70;;
76127;SDS011;64873;50.102;14.434;2023-07-24T00:43:55;7.50;;;4.15;;
76127;SDS011;64873;50.102;14.434;2023-07-24T00:46:21;7.70;;;4.40;;
76127;SDS011;64873;50.102;14.434;2023-07-24T00:48:46;6.35;;;3.97;;
76127;SDS011;64873;50.102;14.434;2023-07-24T00:51:12;6.03;;;3.72;;
76127;SDS011;64873;50.102;14.434;2023-07-24T00:53:38;6.40;;;3.75;;
76127;SDS011;64873;50.102;14.434;2023-07-24T00:56:03;9.18;;;4.57;;
76127;SDS011;64873;50.102;14.434;2023-07-24T00:58:30;5.93;;;3.65;;
76127;SDS011;64873;50.102;14.434;2023-07-24T01:00:55;6.38;;;4.30;;
76127;SDS011;64873;50.102;14.434;2023-07-24T01:03:22;7.10;;;3.92;;
76127;SDS011;64873;50.102;14.434;2023-07-24T01:05:55;7.03;;;4.30;;
76127;SDS011;64873;50.102;14.434;2023-07-24T01:08:21;6.22;;;4.13;;
76127;SDS011;64873;50.102;14.434;2023-07-24T01:10:46;7.07;;;4.28;;
76127;SDS011;64873;50.102;14.434;2023-07-24T01:13:16;6.30;;;3.72;;
76127;SDS011;64873;50.102;14.434;2023-07-24T01:15:54;6.60;;;4.00;;
76127;SDS011;64873;50.102;14.434;2023-07-24T01:18:23;8.35;;;4.32;;
76127;SDS011;64873;50.102;14.434;2023-07-24T01:20:50;6.40;;;4.18;;
76127;SDS011;64873;50.102;14.434;2023-07-24T01:26:02;6.95;;;4.10;;
76127;SDS011;64873;50.102;14.434;2023-07-24T01:28:27;6.53;;;3.85;;
76127;SDS011;64873;50.102;14.434;2023-07-24T01:30:53;7.50;;;3.95;;
76127;SDS011;64873;50.102;14.434;2023-07-24T01:33:19;7.28;;;4.38;;
76127;SDS011;64873;50.102;14.434;2023-07-24T01:35:45;6.90;;;3.83;;
76127;SDS011;64873;50.102;14.434;2023-07-24T01:38:15;5.45;;;3.88;;
76127;SDS011;64873;50.102;14.434;2023-07-24T01:40:41;8.70;;;4.07;;
76127;SDS011;64873;50.102;14.434;2023-07-24T01:43:07;5.22;;;3.83;;
76127;SDS011;64873;50.102;14.434;2023-07-24T01:45:33;6.78;;;3.95;;
76127;SDS011;64873;50.102;14.434;2023-07-24T01:47:59;5.70;;;4.00;;
76127;SDS011;64873;50.102;14.434;2023-07-24T01:50:24;7.50;;;4.30;;
76127;SDS011;64873;50.102;14.434;2023-07-24T01:52:49;8.20;;;4.40;;
76127;SDS011;64873;50.102;14.434;2023-07-24T01:55:15;7.47;;;4.22;;
76127;SDS011;64873;50.102;14.434;2023-07-24T01:57:40;7.07;;;3.80;;
76127;SDS011;64873;50.102;14.434;2023-07-24T02:00:06;7.43;;;4.30;;
76127;SDS011;64873;50.102;14.434;2023-07-24T02:02:32;6.45;;;4.13;;
76127;SDS011;64873;50.102;14.434;2023-07-24T02:04:57;6.32;;;4.20;;
76127;SDS011;64873;50.102;14.434;2023-07-24T02:07:22;6.65;;;4.07;;
76127;SDS011;64873;50.102;14.434;2023-07-24T02:09:48;6.07;;;3.78;;
76127;SDS011;64873;50.102;14.434;2023-07-24T02:12:13;8.07;;;4.05;;
76127;SDS011;64873;50.102;14.434;2023-07-24T02:14:38;7.40;;;4.05;;
76127;SDS011;64873;50.102;14.434;2023-07-24T02:17:04;9.48;;;4.50;;
76127;SDS011;64873;50.102;14.434;2023-07-24T02:19:30;8.25;;;4.18;;
76127;SDS011;64873;50.102;14.434;2023-07-24T02:21:55;6.53;;;4.50;;
76127;SDS011;64873;50.102;14.434;2023-07-24T02:24:20;6.13;;;4.15;;
76127;SDS011;64873;50.102;14.434;2023-07-24T02:26:46;6.18;;;4.15;;
76127;SDS011;64873;50.102;14.434;2023-07-24T02:29:11;7.80;;;4.30;;
76127;SDS011;64873;50.102;14.434;2023-07-24T02:31:37;6.32;;;4.28;;
76127;SDS011;64873;50.102;14.434;2023-07-24T02:34:02;6.63;;;4.60;;
76127;SDS011;64873;50.102;14.434;2023-07-24T02:36:27;8.27;;;4.13;;
76127;SDS011;64873;50.102;14.434;2023-07-24T02:38:53;6.68;;;4.10;;
76127;SDS011;64873;50.102;14.434;2023-07-24T02:41:18;6.80;;;4.28;;
76127;SDS011;64873;50.102;14.434;2023-07-24T02:43:44;6.95;;;4.38;;
76127;SDS011;64873;50.102;14.434;2023-07-24T02:46:09;8.15;;;4.30;;
76127;SDS011;64873;50.102;14.434;2023-07-24T02:48:34;8.27;;;4.25;;
76127;SDS011;64873;50.102;14.434;2023-07-24T02:51:00;6.75;;;4.55;;
76127;SDS011;64873;50.102;14.434;2023-07-24T02:53:25;6.80;;;4.40;;
76127;SDS011;64873;50.102;14.434;2023-07-24T02:55:50;7.22;;;4.13;;
76127;SDS011;64873;50.102;14.434;2023-07-24T02:58:16;7.78;;;4.50;;
76127;SDS011;64873;50.102;14.434;2023-07-24T03:00:41;7.28;;;4.38;;
76127;SDS011;64873;50.102;14.434;2023-07-24T03:03:07;7.70;;;4.38;;
76127;SDS011;64873;50.102;14.434;2023-07-24T03:05:35;9.60;;;4.00;;
76127;SDS011;64873;50.102;14.434;2023-07-24T03:08:00;8.00;;;4.35;;
76127;SDS011;64873;50.102;14.434;2023-07-24T03:10:26;12.43;;;4.68;;
76127;SDS011;64873;50.102;14.434;2023-07-24T03:12:51;11.85;;;4.50;;
76127;SDS011;64873;50.102;14.434;2023-07-24T03:15:16;7.43;;;4.28;;
76127;SDS011;64873;50.102;14.434;2023-07-24T03:17:42;6.72;;;4.45;;
76127;SDS011;64873;50.102;14.434;2023-07-24T03:20:13;7.05;;;4.32;;
76127;SDS011;64873;50.102;14.434;2023-07-24T03:22:40;8.02;;;4.32;;
76127;SDS011;64873;50.102;14.434;2023-07-24T03:25:06;7.45;;;4.32;;
76127;SDS011;64873;50.102;14.434;2023-07-24T03:27:32;10.20;;;4.55;;
76127;SDS011;64873;50.102;14.434;2023-07-24T03:29:58;6.85;;;4.25;;
76127;SDS011;64873;50.102;14.434;2023-07-24T03:32:23;6.97;;;4.28;;
76127;SDS011;64873;50.102;14.434;2023-07-24T03:34:48;8.52;;;4.68;;
76127;SDS011;64873;50.102;14.434;2023-07-24T03:37:14;7.18;;;4.65;;
76127;SDS011;64873;50.102;14.434;2023-07-24T03:39:39;10.48;;;4.55;;
76127;SDS011;64873;50.102;14.434;2023-07-24T03:42:05;8.73;;;4.63;;
76127;SDS011;64873;50.102;14.434;2023-07-24T03:44:30;11.40;;;4.68;;
76127;SDS011;64873;50.102;14.434;2023-07-24T03:46:55;9.48;;;4.82;;
76127;SDS011;64873;50.102;14.434;2023-07-24T03:49:21;11.48;;;5.30;;
76127;SDS011;64873;50.102;14.434;2023-07-24T03:51:47;11.60;;;5.28;;
76127;SDS011;64873;50.102;14.434;2023-07-24T03:54:13;8.43;;;4.85;;
76127;SDS011;64873;50.102;14.434;2023-07-24T03:56:38;11.02;;;4.72;;
76127;SDS011;64873;50.102;14.434;2023-07-24T03:59:05;9.57;;;5.20;;
76127;SDS011;64873;50.102;14.434;2023-07-24T04:01:30;7.38;;;4.90;;
76127;SDS011;64873;50.102;14.434;2023-07-24T04:03:56;12.43;;;5.30;;
76127;SDS011;64873;50.102;14.434;2023-07-24T04:06:22;9.32;;;4.70;;
76127;SDS011;64873;50.102;14.434;2023-07-24T04:08:48;7.57;;;4.82;;
76127;SDS011;64873;50.102;14.434;2023-07-24T04:11:13;9.52;;;5.07;;
76127;SDS011;64873;50.102;14.434;2023-07-24T04:13:39;8.80;;;4.97;;
76127;SDS011;64873;50.102;14.434;2023-07-24T04:16:04;7.63;;;5.00;;
76127;SDS011;64873;50.102;14.434;2023-07-24T04:18:30;11.27;;;5.30;;
76127;SDS011;64873;50.102;14.434;2023-07-24T04:20:55;12.48;;;5.38;;
76127;SDS011;64873;50.102;14.434;2023-07-24T04:23:21;8.98;;;4.85;;
76127;SDS011;64873;50.102;14.434;2023-07-24T04:25:49;9.23;;;5.00;;
76127;SDS011;64873;50.102;14.434;2023-07-24T04:28:15;10.15;;;4.93;;
76127;SDS011;64873;50.102;14.434;2023-07-24T04:30:40;9.68;;;5.43;;
76127;SDS011;64873;50.102;14.434;2023-07-24T04:33:06;9.60;;;4.88;;
76127;SDS011;64873;50.102;14.434;2023-07-24T04:35:31;10.35;;;5.00;;
76127;SDS011;64873;50.102;14.434;2023-07-24T04:37:57;13.32;;;5.60;;
76127;SDS011;64873;50.102;14.434;2023-07-24T04:40:22;13.02;;;6.10;;
76127;SDS011;64873;50.102;14.434;2023-07-24T04:42:48;9.43;;;5.13;;
76127;SDS011;64873;50.102;14.434;2023-07-24T04:45:14;10.50;;;5.95;;
76127;SDS011;64873;50.102;14.434;2023-07-24T04:47:39;11.23;;;5.40;;
76127;SDS011;64873;50.102;14.434;2023-07-24T04:50:05;14.30;;;5.40;;
76127;SDS011;64873;50.102;14.434;2023-07-24T04:52:31;14.15;;;5.88;;
76127;SDS011;64873;50.102;14.434;2023-07-24T04:54:56;11.93;;;5.55;;
76127;SDS011;64873;50.102;14.434;2023-07-24T04:57:21;10.27;;;5.05;;
76127;SDS011;64873;50.102;14.434;2023-07-24T04:59:47;8.38;;;5.10;;
76127;SDS011;64873;50.102;14.434;2023-07-24T05:02:12;7.63;;;4.93;;
76127;SDS011;64873;50.102;14.434;2023-07-24T05:04:38;9.80;;;5.00;;
76127;SDS011;64873;50.102;14.434;2023-07-24T05:07:03;8.52;;;5.15;;
76127;SDS011;64873;50.102;14.434;2023-07-24T05:09:28;8.95;;;5.22;;
76127;SDS011;64873;50.102;14.434;2023-07-24T05:11:54;7.85;;;5.13;;
76127;SDS011;64873;50.102;14.434;2023-07-24T05:14:19;9.63;;;5.20;;
76127;SDS011;64873;50.102;14.434;2023-07-24T05:16:45;8.40;;;5.53;;
76127;SDS011;64873;50.102;14.434;2023-07-24T05:19:10;8.77;;;5.53;;
76127;SDS011;64873;50.102;14.434;2023-07-24T05:21:35;10.40;;;5.40;;
76127;SDS011;64873;50.102;14.434;2023-07-24T05:24:01;9.48;;;5.28;;
76127;SDS011;64873;50.102;14.434;2023-07-24T05:26:26;13.45;;;5.28;;
76127;SDS011;64873;50.102;14.434;2023-07-24T05:28:52;8.45;;;5.57;;
76127;SDS011;64873;50.102;14.434;2023-07-24T05:31:17;10.13;;;5.45;;
76127;SDS011;64873;50.102;14.434;2023-07-24T05:33:43;7.90;;;4.82;;
76127;SDS011;64873;50.102;14.434;2023-07-24T05:36:08;10.70;;;5.30;;
76127;SDS011;64873;50.102;14.434;2023-07-24T05:38:34;9.20;;;5.30;;
76127;SDS011;64873;50.102;14.434;2023-07-24T05:41:03;8.98;;;5.55;;
76127;SDS011;64873;50.102;14.434;2023-07-24T05:43:29;12.80;;;5.43;;
76127;SDS011;64873;50.102;14.434;2023-07-24T05:45:55;12.57;;;5.70;;
76127;SDS011;64873;50.102;14.434;2023-07-24T05:48:22;12.02;;;6.13;;
76127;SDS011;64873;50.102;14.434;2023-07-24T05:50:48;10.27;;;5.35;;
76127;SDS011;64873;50.102;14.434;2023-07-24T05:53:15;8.70;;;5.60;;
76127;SDS011;64873;50.102;14.434;2023-07-24T05:55:40;10.82;;;6.03;;
76127;SDS011;64873;50.102;14.434;2023-07-24T05:58:07;10.35;;;6.10;;
76127;SDS011;64873;50.102;14.434;2023-07-24T06:00:32;10.18;;;5.82;;
76127;SDS011;64873;50.102;14.434;2023-07-24T06:02:58;11.88;;;5.38;;
76127;SDS011;64873;50.102;14.434;2023-07-24T06:05:23;8.68;;;5.65;;
76127;SDS011;64873;50.102;14.434;2023-07-24T06:07:49;9.50;;;5.55;;
76127;SDS011;64873;50.102;14.434;2023-07-24T06:10:14;9.93;;;5.78;;
76127;SDS011;64873;50.102;14.434;2023-07-24T06:12:40;10.55;;;5.60;;
76127;SDS011;64873;50.102;14.434;2023-07-24T06:15:05;13.40;;;6.20;;
76127;SDS011;64873;50.102;14.434;2023-07-24T06:17:31;9.30;;;5.70;;
76127;SDS011;64873;50.102;14.434;2023-07-24T06:19:57;11.23;;;4.93;;
76127;SDS011;64873;50.102;14.434;2023-07-24T06:22:22;13.75;;;5.63;;
76127;SDS011;64873;50.102;14.434;2023-07-24T06:24:48;9.82;;;5.47;;
76127;SDS011;64873;50.102;14.434;2023-07-24T06:27:14;9.55;;;5.28;;
76127;SDS011;64873;50.102;14.434;2023-07-24T06:29:39;8.27;;;5.55;;
76127;SDS011;64873;50.102;14.434;2023-07-24T06:32:05;10.57;;;5.53;;
76127;SDS011;64873;50.102;14.434;2023-07-24T06:34:31;10.88;;;5.78;;
76127;SDS011;64873;50.102;14.434;2023-07-24T06:36:56;9.55;;;5.88;;
76127;SDS011;64873;50.102;14.434;2023-07-24T06:39:21;12.18;;;5.80;;
76127;SDS011;64873;50.102;14.434;2023-07-24T06:41:47;12.27;;;6.32;;
76127;SDS011;64873;50.102;14.434;2023-07-24T06:44:12;9.02;;;5.50;;
76127;SDS011;64873;50.102;14.434;2023-07-24T06:46:37;8.95;;;5.78;;
76127;SDS011;64873;50.102;14.434;2023-07-24T06:49:03;9.98;;;5.90;;
76127;SDS011;64873;50.102;14.434;2023-07-24T06:51:28;10.15;;;5.72;;
76127;SDS011;64873;50.102;14.434;2023-07-24T06:53:54;9.88;;;6.07;;
76127;SDS011;64873;50.102;14.434;2023-07-24T06:56:19;11.60;;;6.53;;
76127;SDS011;64873;50.102;14.434;2023-07-24T06:58:45;8.80;;;6.10;;
76127;SDS011;64873;50.102;14.434;2023-07-24T07:01:10;13.65;;;6.20;;
76127;SDS011;64873;50.102;14.434;2023-07-24T07:03:35;25.33;;;7.40;;
76127;SDS011;64873;50.102;14.434;2023-07-24T07:06:01;132.35;;;14.10;;
76127;SDS011;64873;50.102;14.434;2023-07-24T07:08:28;12.98;;;5.88;;
76127;SDS011;64873;50.102;14.434;2023-07-24T07:10:55;18.38;;;6.38;;
76127;SDS011;64873;50.102;14.434;2023-07-24T07:13:21;19.20;;;6.75;;
76127;SDS011;64873;50.102;14.434;2023-07-24T07:15:47;24.13;;;7.15;;
76127;SDS011;64873;50.102;14.434;2023-07-24T07:18:12;52.80;;;7.95;;
76127;SDS011;64873;50.102;14.434;2023-07-24T07:20:37;44.03;;;7.38;;
76127;SDS011;64873;50.102;14.434;2023-07-24T07:23:03;26.58;;;6.68;;
76127;SDS011;64873;50.102;14.434;2023-07-24T07:25:44;36.67;;;7.38;;
76127;SDS011;64873;50.102;14.434;2023-07-24T07:28:12;29.38;;;6.97;;
76127;SDS011;64873;50.102;14.434;2023-07-24T07:30:38;19.42;;;7.35;;
76127;SDS011;64873;50.102;14.434;2023-07-24T07:33:04;44.65;;;8.52;;
76127;SDS011;64873;50.102;14.434;2023-07-24T07:35:31;39.60;;;7.63;;
76127;SDS011;64873;50.102;14.434;2023-07-24T07:37:57;22.52;;;7.13;;
76127;SDS011;64873;50.102;14.434;2023-07-24T07:40:22;15.75;;;6.30;;
76127;SDS011;64873;50.102;14.434;2023-07-24T07:42:48;24.70;;;6.07;;
76127;SDS011;64873;50.102;14.434;2023-07-24T07:45:14;12.30;;;6.57;;
76127;SDS011;64873;50.102;14.434;2023-07-24T07:47:39;39.75;;;8.32;;
76127;SDS011;64873;50.102;14.434;2023-07-24T07:50:05;27.85;;;8.20;;
76127;SDS011;64873;50.102;14.434;2023-07-24T07:52:30;83.75;;;12.38;;
76127;SDS011;64873;50.102;14.434;2023-07-24T07:54:56;30.55;;;6.82;;
76127;SDS011;64873;50.102;14.434;2023-07-24T07:57:21;114.53;;;12.52;;
76127;SDS011;64873;50.102;14.434;2023-07-24T07:59:47;33.88;;;7.50;;
76127;SDS011;64873;50.102;14.434;2023-07-24T08:02:12;21.25;;;6.13;;
76127;SDS011;64873;50.102;14.434;2023-07-24T08:04:38;30.17;;;7.20;;
76127;SDS011;64873;50.102;14.434;2023-07-24T08:07:03;28.35;;;7.43;;
76127;SDS011;64873;50.102;14.434;2023-07-24T08:09:29;24.35;;;7.30;;
76127;SDS011;64873;50.102;14.434;2023-07-24T08:11:54;50.15;;;9.43;;
76127;SDS011;64873;50.102;14.434;2023-07-24T08:14:20;26.60;;;6.93;;
76127;SDS011;64873;50.102;14.434;2023-07-24T08:16:47;15.25;;;6.38;;
76127;SDS011;64873;50.102;14.434;2023-07-24T08:19:13;16.73;;;7.10;;
76127;SDS011;64873;50.102;14.434;2023-07-24T08:21:38;21.35;;;6.88;;
76127;SDS011;64873;50.102;14.434;2023-07-24T08:24:05;64.68;;;9.63;;
76127;SDS011;64873;50.102;14.434;2023-07-24T08:26:31;18.95;;;7.05;;
76127;SDS011;64873;50.102;14.434;2023-07-24T08:28:56;9.23;;;5.93;;
76127;SDS011;64873;50.102;14.434;2023-07-24T08:31:21;11.57;;;6.40;;
76127;SDS011;64873;50.102;14.434;2023-07-24T08:33:47;14.00;;;6.25;;
76127;SDS011;64873;50.102;14.434;2023-07-24T08:36:12;16.27;;;6.45;;
76127;SDS011;64873;50.102;14.434;2023-07-24T08:38:38;13.77;;;6.47;;
76127;SDS011;64873;50.102;14.434;2023-07-24T08:41:04;11.48;;;6.40;;
76127;SDS011;64873;50.102;14.434;2023-07-24T08:43:37;18.35;;;6.68;;
76127;SDS011;64873;50.102;14.434;2023-07-24T08:46:05;9.40;;;5.78;;
76127;SDS011;64873;50.102;14.434;2023-07-24T08:48:32;36.65;;;8.20;;
76127;SDS011;64873;50.102;14.434;2023-07-24T08:51:06;18.77;;;6.28;;
76127;SDS011;64873;50.102;14.434;2023-07-24T08:53:42;32.67;;;9.15;;
76127;SDS011;64873;50.102;14.434;2023-07-24T08:56:08;42.08;;;8.50;;
76127;SDS011;64873;50.102;14.434;2023-07-24T08:58:35;52.00;;;11.07;;
76127;SDS011;64873;50.102;14.434;2023-07-24T09:01:02;18.30;;;6.88;;
76127;SDS011;64873;50.102;14.434;2023-07-24T09:03:28;99.68;;;9.93;;
76127;SDS011;64873;50.102;14.434;2023-07-24T09:05:55;22.88;;;6.65;;
76127;SDS011;64873;50.102;14.434;2023-07-24T09:08:34;72.97;;;9.73;;
76127;SDS011;64873;50.102;14.434;2023-07-24T09:11:02;72.35;;;8.60;;
76127;SDS011;64873;50.102;14.434;2023-07-24T09:13:28;24.55;;;7.50;;
76127;SDS011;64873;50.102;14.434;2023-07-24T09:15:54;18.40;;;6.57;;
76127;SDS011;64873;50.102;14.434;2023-07-24T09:18:20;18.33;;;6.60;;
76127;SDS011;64873;50.102;14.434;2023-07-24T09:20:46;12.77;;;7.10;;
76127;SDS011;64873;50.102;14.434;2023-07-24T09:23:12;10.20;;;6.22;;
76127;SDS011;64873;50.102;14.434;2023-07-24T09:25:39;12.60;;;6.05;;
76127;SDS011;64873;50.102;14.434;2023-07-24T09:28:14;18.20;;;7.05;;
76127;SDS011;64873;50.102;14.434;2023-07-24T09:30:40;18.70;;;6.78;;
76127;SDS011;64873;50.102;14.434;2023-07-24T09:33:07;34.78;;;8.13;;
76127;SDS011;64873;50.102;14.434;2023-07-24T09:35:33;21.95;;;7.07;;
76127;SDS011;64873;50.102;14.434;2023-07-24T09:38:05;58.45;;;9.30;;
76127;SDS011;64873;50.102;14.434;2023-07-24T09:40:39;61.88;;;10.15;;
76127;SDS011;64873;50.102;14.434;2023-07-24T09:43:22;36.50;;;8.43;;
76127;SDS011;64873;50.102;14.434;2023-07-24T09:45:48;19.90;;;6.72;;
76127;SDS011;64873;50.102;14.434;2023-07-24T09:48:15;18.88;;;6.57;;
76127;SDS011;64873;50.102;14.434;2023-07-24T09:50:42;18.33;;;6.47;;
76127;SDS011;64873;50.102;14.434;2023-07-24T09:53:12;15.10;;;6.85;;
76127;SDS011;64873;50.102;14.434;2023-07-24T09:55:49;34.63;;;8.27;;
76127;SDS011;64873;50.102;14.434;2023-07-24T09:58:21;28.17;;;7.00;;
76127;SDS011;64873;50.102;14.434;2023-07-24T10:00:48;23.38;;;6.72;;
76127;SDS011;64873;50.102;14.434;2023-07-24T10:03:15;20.50;;;7.25;;
76127;SDS011;64873;50.102;14.434;2023-07-24T10:05:41;25.13;;;7.63;;
76127;SDS011;64873;50.102;14.434;2023-07-24T10:08:10;24.67;;;7.13;;
76127;SDS011;64873;50.102;14.434;2023-07-24T10:10:36;14.65;;;7.38;;
76127;SDS011;64873;50.102;14.434;2023-07-24T10:13:03;35.00;;;7.72;;
76127;SDS011;64873;50.102;14.434;2023-07-24T10:15:29;39.75;;;8.00;;
76127;SDS011;64873;50.102;14.434;2023-07-24T10:18:29;21.38;;;7.53;;
76127;SDS011;64873;50.102;14.434;2023-07-24T10:20:59;13.20;;;6.55;;
76127;SDS011;64873;50.102;14.434;2023-07-24T10:23:26;13.55;;;6.75;;
76127;SDS011;64873;50.102;14.434;2023-07-24T10:25:52;9.07;;;6.13;;
76127;SDS011;64873;50.102;14.434;2023-07-24T10:28:17;11.93;;;6.88;;
76127;SDS011;64873;50.102;14.434;2023-07-24T10:30:43;9.45;;;6.57;;
76127;SDS011;64873;50.102;14.434;2023-07-24T10:33:10;12.23;;;6.57;;
76127;SDS011;64873;50.102;14.434;2023-07-24T10:35:44;13.18;;;6.45;;
76127;SDS011;64873;50.102;14.434;2023-07-24T10:38:16;9.80;;;6.22;;
76127;SDS011;64873;50.102;14.434;2023-07-24T10:40:43;8.30;;;6.15;;
76127;SDS011;64873;50.102;14.434;2023-07-24T10:43:10;13.93;;;6.70;;
76127;SDS011;64873;50.102;14.434;2023-07-24T10:45:48;11.57;;;6.28;;
76127;SDS011;64873;50.102;14.434;2023-07-24T10:48:14;12.13;;;6.20;;
76127;SDS011;64873;50.102;14.434;2023-07-24T10:50:42;17.15;;;12.15;;
76127;SDS011;64873;50.102;14.434;2023-07-24T10:53:09;15.30;;;6.80;;
76127;SDS011;64873;50.102;14.434;2023-07-24T10:55:46;13.93;;;7.40;;
76127;SDS011;64873;50.102;14.434;2023-07-24T10:58:12;13.45;;;7.28;;
76127;SDS011;64873;50.102;14.434;2023-07-24T11:00:39;12.23;;;6.85;;
76127;SDS011;64873;50.102;14.434;2023-07-24T11:03:09;31.98;;;7.22;;
76127;SDS011;64873;50.102;14.434;2023-07-24T11:05:38;10.18;;;6.70;;
76127;SDS011;64873;50.102;14.434;2023-07-24T11:08:12;15.50;;;6.80;;
76127;SDS011;64873;50.102;14.434;2023-07-24T11:10:44;18.27;;;6.25;;
76127;SDS011;64873;50.102;14.434;2023-07-24T11:13:13;14.75;;;6.47;;
76127;SDS011;64873;50.102;14.434;2023-07-24T11:15:39;11.57;;;6.25;;
76127;SDS011;64873;50.102;14.434;2023-07-24T11:18:05;18.85;;;6.45;;
76127;SDS011;64873;50.102;14.434;2023-07-24T11:20:33;13.82;;;6.00;;
76127;SDS011;64873;50.102;14.434;2023-07-24T11:23:03;18.48;;;6.55;;
76127;SDS011;64873;50.102;14.434;2023-07-24T11:25:28;11.40;;;6.50;;
76127;SDS011;64873;50.102;14.434;2023-07-24T11:27:54;10.35;;;6.25;;
76127;SDS011;64873;50.102;14.434;2023-07-24T11:30:20;9.52;;;5.97;;
76127;SDS011;64873;50.102;14.434;2023-07-24T11:32:45;12.48;;;6.32;;
76127;SDS011;64873;50.102;14.434;2023-07-24T11:35:11;9.32;;;6.22;;
76127;SDS011;64873;50.102;14.434;2023-07-24T11:37:37;10.13;;;6.18;;
76127;SDS011;64873;50.102;14.434;2023-07-24T11:40:03;11.65;;;6.93;;
76127;SDS011;64873;50.102;14.434;2023-07-24T11:42:33;10.63;;;6.57;;
76127;SDS011;64873;50.102;14.434;2023-07-24T11:45:02;12.32;;;7.32;;
76127;SDS011;64873;50.102;14.434;2023-07-24T11:47:28;11.18;;;6.85;;
76127;SDS011;64873;50.102;14.434;2023-07-24T11:49:58;10.68;;;6.07;;
76127;SDS011;64873;50.102;14.434;2023-07-24T11:52:24;15.57;;;6.65;;
76127;SDS011;64873;50.102;14.434;2023-07-24T11:54:56;17.60;;;7.38;;
76127;SDS011;64873;50.102;14.434;2023-07-24T11:57:28;15.82;;;7.55;;
76127;SDS011;64873;50.102;14.434;2023-07-24T11:59:54;16.63;;;7.70;;
76127;SDS011;64873;50.102;14.434;2023-07-24T12:02:19;11.50;;;6.90;;
76127;SDS011;64873;50.102;14.434;2023-07-24T12:04:44;13.95;;;6.90;;
76127;SDS011;64873;50.102;14.434;2023-07-24T12:07:10;13.20;;;7.40;;
76127;SDS011;64873;50.102;14.434;2023-07-24T12:09:35;12.13;;;7.60;;
76127;SDS011;64873;50.102;14.434;2023-07-24T12:12:02;12.85;;;7.00;;
76127;SDS011;64873;50.102;14.434;2023-07-24T12:14:29;12.38;;;6.65;;
76127;SDS011;64873;50.102;14.434;2023-07-24T12:17:01;10.50;;;6.70;;
76127;SDS011;64873;50.102;14.434;2023-07-24T12:19:27;19.20;;;7.60;;
76127;SDS011;64873;50.102;14.434;2023-07-24T12:21:53;23.50;;;6.93;;
76127;SDS011;64873;50.102;14.434;2023-07-24T12:24:18;19.00;;;7.35;;
76127;SDS011;64873;50.102;14.434;2023-07-24T12:26:44;28.25;;;7.60;;
76127;SDS011;64873;50.102;14.434;2023-07-24T12:29:09;13.88;;;7.13;;
76127;SDS011;64873;50.102;14.434;2023-07-24T12:31:34;26.33;;;8.32;;
76127;SDS011;64873;50.102;14.434;2023-07-24T12:34:00;18.35;;;7.30;;
76127;SDS011;64873;50.102;14.434;2023-07-24T12:36:26;14.13;;;7.07;;
76127;SDS011;64873;50.102;14.434;2023-07-24T12:38:51;14.90;;;7.15;;
76127;SDS011;64873;50.102;14.434;2023-07-24T12:41:17;20.42;;;7.95;;
76127;SDS011;64873;50.102;14.434;2023-07-24T12:43:43;18.75;;;7.38;;
76127;SDS011;64873;50.102;14.434;2023-07-24T12:46:09;31.55;;;11.68;;
76127;SDS011;64873;50.102;14.434;2023-07-24T12:48:34;16.48;;;7.75;;
76127;SDS011;64873;50.102;14.434;2023-07-24T12:51:01;13.93;;;7.50;;
76127;SDS011;64873;50.102;14.434;2023-07-24T12:53:26;13.05;;;7.53;;
76127;SDS011;64873;50.102;14.434;2023-07-24T12:55:52;12.05;;;7.00;;
76127;SDS011;64873;50.102;14.434;2023-07-24T12:58:17;10.57;;;6.97;;
76127;SDS011;64873;50.102;14.434;2023-07-24T13:00:43;12.80;;;6.88;;
76127;SDS011;64873;50.102;14.434;2023-07-24T13:03:08;10.10;;;7.38;;
76127;SDS011;64873;50.102;14.434;2023-07-24T13:05:33;12.02;;;8.27;;
76127;SDS011;64873;50.102;14.434;2023-07-24T13:07:59;13.25;;;8.77;;
76127;SDS011;64873;50.102;14.434;2023-07-24T13:10:24;13.45;;;7.80;;
76127;SDS011;64873;50.102;14.434;2023-07-24T13:12:50;18.38;;;7.78;;
76127;SDS011;64873;50.102;14.434;2023-07-24T13:15:15;12.18;;;7.78;;
76127;SDS011;64873;50.102;14.434;2023-07-24T13:17:40;15.95;;;8.07;;
76127;SDS011;64873;50.102;14.434;2023-07-24T13:20:06;12.75;;;7.75;;
76127;SDS011;64873;50.102;14.434;2023-07-24T13:22:32;12.98;;;7.95;;
76127;SDS011;64873;50.102;14.434;2023-07-24T13:24:57;21.55;;;7.93;;
76127;SDS011;64873;50.102;14.434;2023-07-24T13:27:23;25.20;;;8.82;;
76127;SDS011;64873;50.102;14.434;2023-07-24T13:29:48;26.60;;;9.25;;
76127;SDS011;64873;50.102;14.434;2023-07-24T13:32:13;26.13;;;7.95;;
76127;SDS011;64873;50.102;14.434;2023-07-24T13:34:41;17.58;;;7.43;;
76127;SDS011;64873;50.102;14.434;2023-07-24T13:37:06;27.08;;;8.27;;
76127;SDS011;64873;50.102;14.434;2023-07-24T13:39:32;35.03;;;8.50;;
76127;SDS011;64873;50.102;14.434;2023-07-24T13:41:58;36.17;;;8.77;;
76127;SDS011;64873;50.102;14.434;2023-07-24T13:44:24;26.05;;;7.40;;
76127;SDS011;64873;50.102;14.434;2023-07-24T13:46:49;17.25;;;7.50;;
76127;SDS011;64873;50.102;14.434;2023-07-24T13:49:15;11.27;;;7.38;;
76127;SDS011;64873;50.102;14.434;2023-07-24T13:51:40;11.50;;;6.65;;
76127;SDS011;64873;50.102;14.434;2023-07-24T13:54:05;13.15;;;7.78;;
76127;SDS011;64873;50.102;14.434;2023-07-24T13:56:31;10.43;;;5.97;;
76127;SDS011;64873;50.102;14.434;2023-07-24T13:59:00;14.25;;;7.35;;
76127;SDS011;64873;50.102;14.434;2023-07-24T14:01:25;9.63;;;6.82;;
76127;SDS011;64873;50.102;14.434;2023-07-24T14:03:50;11.18;;;6.50;;
76127;SDS011;64873;50.102;14.434;2023-07-24T14:06:16;15.00;;;6.93;;
76127;SDS011;64873;50.102;14.434;2023-07-24T14:08:41;14.05;;;7.00;;
76127;SDS011;64873;50.102;14.434;2023-07-24T14:11:07;12.38;;;7.50;;
76127;SDS011;64873;50.102;14.434;2023-07-24T14:13:32;9.77;;;5.68;;
76127;SDS011;64873;50.102;14.434;2023-07-24T14:15:57;10.48;;;5.78;;
76127;SDS011;64873;50.102;14.434;2023-07-24T14:18:23;11.95;;;5.47;;
76127;SDS011;64873;50.102;14.434;2023-07-24T14:20:48;10.68;;;5.38;;
76127;SDS011;64873;50.102;14.434;2023-07-24T14:23:14;9.88;;;5.63;;